sensor_id;sensor_type;location;lat;lon;timestamp;pressure;altitude;pressure_sealevel;temperature;humidity
12799;BME280;19250;42.646;26.980;2023-07-29T00:00:08;98758.78;;;21.60;83.03
12799;BME280;19250;42.646;26.980;2023-07-29T00:02:36;98752.91;;;21.63;81.66
12799;BME280;19250;42.646;26.980;2023-07-29T00:05:03;98759.63;;;21.73;80.85
12799;BME280;19250;42.646;26.980;2023-07-29T00:07:30;98749.81;;;21.71;80.17
12799;BME280;19250;42.646;26.980;2023-07-29T00:09:58;98745.09;;;21.02;83.13
12799;BME280;19250;42.646;26.980;2023-07-29T00:12:25;98740.47;;;20.32;88.94
12799;BME280;19250;42.646;26.980;2023-07-29T00:14:52;98747.50;;;20.51;88.77
12799;BME280;19250;42.646;26.980;2023-07-29T00:17:18;98739.69;;;21.02;85.00
12799;BME280;19250;42.646;26.980;2023-07-29T00:19:46;98730.78;;;20.84;85.27
12799;BME280;19250;42.646;26.980;2023-07-29T00:22:13;98730.22;;;20.93;85.61
12799;BME280;19250;42.646;26.980;2023-07-29T00:24:40;98718.41;;;21.17;83.62
12799;BME280;19250;42.646;26.980;2023-07-29T00:27:08;98727.78;;;21.03;84.08
12799;BME280;19250;42.646;26.980;2023-07-29T00:29:35;98731.84;;;21.12;84.13
12799;BME280;19250;42.646;26.980;2023-07-29T00:32:02;98718.78;;;21.21;82.91
12799;BME280;19250;42.646;26.980;2023-07-29T00:34:29;98718.69;;;20.98;85.10
12799;BME280;19250;42.646;26.980;2023-07-29T00:36:56;98725.41;;;21.07;85.01
12799;BME280;19250;42.646;26.980;2023-07-29T00:39:23;98715.47;;;21.19;82.56
12799;BME280;19250;42.646;26.980;2023-07-29T00:41:50;98715.09;;;20.74;86.40
12799;BME280;19250;42.646;26.980;2023-07-29T00:44:18;98714.22;;;21.03;85.28
12799;BME280;19250;42.646;26.980;2023-07-29T00:46:45;98709.91;;;21.26;82.75
12799;BME280;19250;42.646;26.980;2023-07-29T00:49:12;98712.16;;;20.76;86.07
12799;BME280;19250;42.646;26.980;2023-07-29T00:51:39;98718.16;;;20.78;87.70
12799;BME280;19250;42.646;26.980;2023-07-29T00:54:06;98714.56;;;20.95;85.27
12799;BME280;19250;42.646;26.980;2023-07-29T00:56:33;98710.78;;;20.85;86.66
12799;BME280;19250;42.646;26.980;2023-07-29T00:59:00;98704.69;;;20.71;87.38
12799;BME280;19250;42.646;26.980;2023-07-29T01:01:29;98699.91;;;20.73;88.20
12799;BME280;19250;42.646;26.980;2023-07-29T01:03:56;98706.06;;;20.92;86.76
12799;BME280;19250;42.646;26.980;2023-07-29T01:06:23;98700.16;;;20.95;84.80
12799;BME280;19250;42.646;26.980;2023-07-29T01:08:54;98698.69;;;20.69;86.27
12799;BME280;19250;42.646;26.980;2023-07-29T01:11:26;98699.38;;;20.94;84.49
12799;BME280;19250;42.646;26.980;2023-07-29T01:13:58;98698.06;;;20.97;84.02
12799;BME280;19250;42.646;26.980;2023-07-29T01:16:30;98701.91;;;20.78;84.37
12799;BME280;19250;42.646;26.980;2023-07-29T01:18:57;98699.38;;;20.94;83.43
12799;BME280;19250;42.646;26.980;2023-07-29T01:21:27;98697.59;;;20.58;85.07
12799;BME280;19250;42.646;26.980;2023-07-29T01:23:59;98701.31;;;20.76;84.48
12799;BME280;19250;42.646;26.980;2023-07-29T01:26:26;98696.97;;;20.86;83.43
12799;BME280;19250;42.646;26.980;2023-07-29T01:28:55;98702.88;;;20.53;85.67
12799;BME280;19250;42.646;26.980;2023-07-29T01:31:27;98695.03;;;20.63;85.36
12799;BME280;19250;42.646;26.980;2023-07-29T01:34:01;98696.53;;;20.59;86.55
12799;BME280;19250;42.646;26.980;2023-07-29T01:36:33;98687.41;;;20.72;85.31
12799;BME280;19250;42.646;26.980;2023-07-29T01:39:05;98682.25;;;20.52;86.14
12799;BME280;19250;42.646;26.980;2023-07-29T01:41:34;98684.75;;;20.54;86.94
12799;BME280;19250;42.646;26.980;2023-07-29T01:44:03;98656.69;;;20.48;85.61
12799;BME280;19250;42.646;26.980;2023-07-29T01:46:33;98675.03;;;20.46;87.16
12799;BME280;19250;42.646;26.980;2023-07-29T01:49:00;98682.34;;;20.46;87.21
12799;BME280;19250;42.646;26.980;2023-07-29T01:51:27;98680.97;;;20.55;86.67
12799;BME280;19250;42.646;26.980;2023-07-29T01:53:54;98674.94;;;20.23;88.18
12799;BME280;19250;42.646;26.980;2023-07-29T01:56:23;98670.41;;;20.35;87.81
12799;BME280;19250;42.646;26.980;2023-07-29T01:58:51;98672.22;;;20.41;87.49
12799;BME280;19250;42.646;26.980;2023-07-29T02:01:18;98678.72;;;20.52;86.77
12799;BME280;19250;42.646;26.980;2023-07-29T02:03:45;98678.25;;;20.55;86.34
12799;BME280;19250;42.646;26.980;2023-07-29T02:06:13;98685.81;;;20.64;85.22
12799;BME280;19250;42.646;26.980;2023-07-29T02:08:40;98691.97;;;20.72;84.49
12799;BME280;19250;42.646;26.980;2023-07-29T02:11:07;98693.19;;;20.76;84.64
12799;BME280;19250;42.646;26.980;2023-07-29T02:13:36;98696.00;;;20.69;85.18
12799;BME280;19250;42.646;26.980;2023-07-29T02:16:04;98699.13;;;20.54;84.22
12799;BME280;19250;42.646;26.980;2023-07-29T02:18:31;98691.78;;;20.55;85.23
12799;BME280;19250;42.646;26.980;2023-07-29T02:20:58;98688.16;;;20.61;85.44
12799;BME280;19250;42.646;26.980;2023-07-29T02:23:25;98689.88;;;20.44;85.64
12799;BME280;19250;42.646;26.980;2023-07-29T02:25:53;98685.09;;;19.73;92.27
12799;BME280;19250;42.646;26.980;2023-07-29T02:28:20;98690.28;;;19.57;95.41
12799;BME280;19250;42.646;26.980;2023-07-29T02:31:09;98689.84;;;19.78;94.04
12799;BME280;19250;42.646;26.980;2023-07-29T02:33:37;98700.66;;;19.96;92.42
12799;BME280;19250;42.646;26.980;2023-07-29T02:36:04;98703.75;;;19.81;92.00
12799;BME280;19250;42.646;26.980;2023-07-29T02:38:31;98709.19;;;19.81;92.63
12799;BME280;19250;42.646;26.980;2023-07-29T02:40:58;98706.81;;;19.67;92.64
12799;BME280;19250;42.646;26.980;2023-07-29T02:43:25;98702.13;;;19.31;96.57
12799;BME280;19250;42.646;26.980;2023-07-29T02:45:53;98708.47;;;19.18;98.39
12799;BME280;19250;42.646;26.980;2023-07-29T02:48:20;98705.28;;;19.52;96.80
12799;BME280;19250;42.646;26.980;2023-07-29T02:50:47;98709.13;;;19.63;95.25
12799;BME280;19250;42.646;26.980;2023-07-29T02:53:14;98713.81;;;19.92;93.50
12799;BME280;19250;42.646;26.980;2023-07-29T02:55:40;98713.97;;;19.97;92.35
12799;BME280;19250;42.646;26.980;2023-07-29T02:58:07;98710.38;;;19.42;96.96
12799;BME280;19250;42.646;26.980;2023-07-29T03:00:34;98710.25;;;19.06;100.00
12799;BME280;19250;42.646;26.980;2023-07-29T03:03:03;98711.38;;;19.23;100.00
12799;BME280;19250;42.646;26.980;2023-07-29T03:05:30;98718.22;;;19.50;98.88
12799;BME280;19250;42.646;26.980;2023-07-29T03:07:57;98713.22;;;18.98;98.67
12799;BME280;19250;42.646;26.980;2023-07-29T03:10:24;98717.41;;;18.63;100.00
12799;BME280;19250;42.646;26.980;2023-07-29T03:12:53;98711.44;;;18.85;97.15
12799;BME280;19250;42.646;26.980;2023-07-29T03:15:22;98714.31;;;18.59;97.11
12799;BME280;19250;42.646;26.980;2023-07-29T03:17:49;98713.50;;;18.59;95.38
12799;BME280;19250;42.646;26.980;2023-07-29T03:20:18;98708.97;;;18.53;95.49
12799;BME280;19250;42.646;26.980;2023-07-29T03:22:45;98712.63;;;18.65;93.62
12799;BME280;19250;42.646;26.980;2023-07-29T03:25:12;98707.22;;;18.65;94.07
12799;BME280;19250;42.646;26.980;2023-07-29T03:27:39;98714.72;;;18.56;93.85
12799;BME280;19250;42.646;26.980;2023-07-29T03:30:06;98722.03;;;17.98;98.08
12799;BME280;19250;42.646;26.980;2023-07-29T03:32:33;98727.66;;;17.97;99.23
12799;BME280;19250;42.646;26.980;2023-07-29T03:35:00;98728.06;;;18.44;96.66
12799;BME280;19250;42.646;26.980;2023-07-29T03:37:28;98741.44;;;18.26;96.15
12799;BME280;19250;42.646;26.980;2023-07-29T03:39:55;98739.69;;;18.52;94.60
12799;BME280;19250;42.646;26.980;2023-07-29T03:42:23;98742.13;;;18.60;93.13
12799;BME280;19250;42.646;26.980;2023-07-29T03:44:50;98738.31;;;18.29;96.69
12799;BME280;19250;42.646;26.980;2023-07-29T03:47:16;98733.56;;;18.31;97.65
12799;BME280;19250;42.646;26.980;2023-07-29T03:49:43;98737.66;;;18.40;96.96
12799;BME280;19250;42.646;26.980;2023-07-29T03:52:10;98734.03;;;18.09;98.54
12799;BME280;19250;42.646;26.980;2023-07-29T03:54:38;98726.88;;;18.34;97.39
12799;BME280;19250;42.646;26.980;2023-07-29T03:57:05;98727.91;;;18.33;95.94
12799;BME280;19250;42.646;26.980;2023-07-29T03:59:32;98726.00;;;18.46;93.52
12799;BME280;19250;42.646;26.980;2023-07-29T04:01:59;98723.66;;;18.57;91.72
12799;BME280;19250;42.646;26.980;2023-07-29T04:04:26;98724.47;;;18.95;88.82
12799;BME280;19250;42.646;26.980;2023-07-29T04:06:53;98729.00;;;19.01;85.84
12799;BME280;19250;42.646;26.980;2023-07-29T04:09:20;98726.97;;;19.21;85.06
12799;BME280;19250;42.646;26.980;2023-07-29T04:11:48;98719.44;;;19.73;79.97
12799;BME280;19250;42.646;26.980;2023-07-29T04:14:15;98722.91;;;19.80;78.19
12799;BME280;19250;42.646;26.980;2023-07-29T04:16:42;98719.41;;;19.54;79.61
12799;BME280;19250;42.646;26.980;2023-07-29T04:19:09;98720.66;;;19.77;78.51
12799;BME280;19250;42.646;26.980;2023-07-29T04:21:36;98719.84;;;19.94;76.87
12799;BME280;19250;42.646;26.980;2023-07-29T04:24:03;98721.88;;;20.17;75.18
12799;BME280;19250;42.646;26.980;2023-07-29T04:26:30;98724.28;;;20.07;75.08
12799;BME280;19250;42.646;26.980;2023-07-29T04:28:58;98730.88;;;20.47;75.00
12799;BME280;19250;42.646;26.980;2023-07-29T04:31:25;98731.34;;;20.44;72.14
12799;BME280;19250;42.646;26.980;2023-07-29T04:33:52;98726.94;;;20.61;73.38
12799;BME280;19250;42.646;26.980;2023-07-29T04:36:19;98731.53;;;20.25;74.93
12799;BME280;19250;42.646;26.980;2023-07-29T04:38:45;98725.16;;;20.19;74.72
12799;BME280;19250;42.646;26.980;2023-07-29T04:41:12;98732.97;;;19.91;75.90
12799;BME280;19250;42.646;26.980;2023-07-29T04:43:39;98728.78;;;20.13;74.17
12799;BME280;19250;42.646;26.980;2023-07-29T04:46:08;98739.47;;;20.44;74.25
12799;BME280;19250;42.646;26.980;2023-07-29T04:48:34;98739.41;;;20.33;73.53
12799;BME280;19250;42.646;26.980;2023-07-29T04:51:01;98745.94;;;20.43;73.54
12799;BME280;19250;42.646;26.980;2023-07-29T04:53:28;98742.75;;;20.94;71.32
12799;BME280;19250;42.646;26.980;2023-07-29T04:55:55;98749.72;;;20.72;70.33
12799;BME280;19250;42.646;26.980;2023-07-29T04:58:22;98752.72;;;21.24;68.21
12799;BME280;19250;42.646;26.980;2023-07-29T05:00:49;98745.81;;;21.39;66.85
12799;BME280;19250;42.646;26.980;2023-07-29T05:03:17;98738.34;;;21.23;65.70
12799;BME280;19250;42.646;26.980;2023-07-29T05:05:44;98732.00;;;21.64;63.42
12799;BME280;19250;42.646;26.980;2023-07-29T05:08:11;98741.56;;;21.90;61.05
12799;BME280;19250;42.646;26.980;2023-07-29T05:10:38;98735.41;;;22.17;59.03
12799;BME280;19250;42.646;26.980;2023-07-29T05:13:05;98738.59;;;21.68;58.36
12799;BME280;19250;42.646;26.980;2023-07-29T05:15:32;98734.09;;;21.27;59.34
12799;BME280;19250;42.646;26.980;2023-07-29T05:17:59;98743.81;;;21.69;59.26
12799;BME280;19250;42.646;26.980;2023-07-29T05:20:27;98752.34;;;22.36;55.54
12799;BME280;19250;42.646;26.980;2023-07-29T05:22:54;98755.59;;;22.21;54.34
12799;BME280;19250;42.646;26.980;2023-07-29T05:25:21;98761.75;;;22.68;53.26
12799;BME280;19250;42.646;26.980;2023-07-29T05:27:48;98763.47;;;22.86;52.08
12799;BME280;19250;42.646;26.980;2023-07-29T05:30:15;98775.22;;;23.48;51.33
12799;BME280;19250;42.646;26.980;2023-07-29T05:32:41;98779.03;;;23.85;49.06
12799;BME280;19250;42.646;26.980;2023-07-29T05:35:08;98780.88;;;23.02;49.93
12799;BME280;19250;42.646;26.980;2023-07-29T05:37:38;98782.88;;;23.84;50.31
12799;BME280;19250;42.646;26.980;2023-07-29T05:40:06;98791.44;;;24.31;49.46
12799;BME280;19250;42.646;26.980;2023-07-29T05:42:34;98791.53;;;24.58;47.99
12799;BME280;19250;42.646;26.980;2023-07-29T05:45:01;98788.78;;;24.80;47.12
12799;BME280;19250;42.646;26.980;2023-07-29T05:47:29;98807.00;;;25.23;46.45
12799;BME280;19250;42.646;26.980;2023-07-29T05:49:56;98806.88;;;25.34;46.76
12799;BME280;19250;42.646;26.980;2023-07-29T05:52:22;98806.69;;;25.46;46.81
12799;BME280;19250;42.646;26.980;2023-07-29T05:54:51;98806.66;;;25.68;45.88
12799;BME280;19250;42.646;26.980;2023-07-29T05:57:18;98806.72;;;25.19;47.58
12799;BME280;19250;42.646;26.980;2023-07-29T05:59:44;98808.47;;;25.57;47.61
12799;BME280;19250;42.646;26.980;2023-07-29T06:02:11;98810.84;;;25.80;47.95
12799;BME280;19250;42.646;26.980;2023-07-29T06:04:38;98808.34;;;26.11;47.28
12799;BME280;19250;42.646;26.980;2023-07-29T06:07:05;98804.59;;;26.22;47.41
12799;BME280;19250;42.646;26.980;2023-07-29T06:09:32;98808.91;;;26.65;46.71
12799;BME280;19250;42.646;26.980;2023-07-29T06:12:00;98811.50;;;26.86;46.54
12799;BME280;19250;42.646;26.980;2023-07-29T06:14:27;98806.34;;;27.10;46.09
12799;BME280;19250;42.646;26.980;2023-07-29T06:16:54;98798.78;;;27.42;44.91
12799;BME280;19250;42.646;26.980;2023-07-29T06:19:21;98797.44;;;27.60;44.64
12799;BME280;19250;42.646;26.980;2023-07-29T06:21:48;98802.63;;;27.72;43.59
12799;BME280;19250;42.646;26.980;2023-07-29T06:24:15;98800.97;;;27.71;44.93
12799;BME280;19250;42.646;26.980;2023-07-29T06:26:42;98797.13;;;27.62;41.83
12799;BME280;19250;42.646;26.980;2023-07-29T06:29:10;98801.13;;;26.98;41.95
12799;BME280;19250;42.646;26.980;2023-07-29T06:31:37;98798.19;;;27.40;42.19
12799;BME280;19250;42.646;26.980;2023-07-29T06:34:04;98792.47;;;27.47;42.47
12799;BME280;19250;42.646;26.980;2023-07-29T06:36:30;98790.00;;;28.01;41.32
12799;BME280;19250;42.646;26.980;2023-07-29T06:38:57;98796.66;;;28.79;40.99
12799;BME280;19250;42.646;26.980;2023-07-29T06:41:24;98800.91;;;29.05;40.70
12799;BME280;19250;42.646;26.980;2023-07-29T06:43:51;98803.56;;;29.21;39.12
12799;BME280;19250;42.646;26.980;2023-07-29T06:46:19;98800.09;;;29.49;39.01
12799;BME280;19250;42.646;26.980;2023-07-29T06:48:46;98798.56;;;29.38;39.88
12799;BME280;19250;42.646;26.980;2023-07-29T06:51:13;98800.97;;;29.83;38.63
12799;BME280;19250;42.646;26.980;2023-07-29T06:53:40;98797.75;;;30.29;36.85
12799;BME280;19250;42.646;26.980;2023-07-29T06:56:07;98792.75;;;29.44;37.27
12799;BME280;19250;42.646;26.980;2023-07-29T06:58:34;98799.22;;;28.50;37.80
12799;BME280;19250;42.646;26.980;2023-07-29T07:01:02;98790.56;;;29.41;37.12
12799;BME280;19250;42.646;26.980;2023-07-29T07:03:30;98794.78;;;29.62;37.56
12799;BME280;19250;42.646;26.980;2023-07-29T07:05:58;98786.72;;;30.05;35.84
12799;BME280;19250;42.646;26.980;2023-07-29T07:08:25;98790.19;;;30.44;34.21
12799;BME280;19250;42.646;26.980;2023-07-29T07:10:52;98789.97;;;30.12;34.87
12799;BME280;19250;42.646;26.980;2023-07-29T07:13:18;98791.53;;;30.47;34.25
12799;BME280;19250;42.646;26.980;2023-07-29T07:15:45;98779.59;;;29.70;34.30
12799;BME280;19250;42.646;26.980;2023-07-29T07:18:12;98776.50;;;30.34;35.29
12799;BME280;19250;42.646;26.980;2023-07-29T07:20:41;98777.72;;;29.99;33.52
12799;BME280;19250;42.646;26.980;2023-07-29T07:23:07;98773.91;;;30.48;33.77
12799;BME280;19250;42.646;26.980;2023-07-29T07:25:37;98773.19;;;29.46;34.33
12799;BME280;19250;42.646;26.980;2023-07-29T07:28:04;98778.09;;;29.88;34.42
12799;BME280;19250;42.646;26.980;2023-07-29T07:30:31;98772.81;;;30.20;34.41
12799;BME280;19250;42.646;26.980;2023-07-29T07:32:57;98772.22;;;30.70;33.48
12799;BME280;19250;42.646;26.980;2023-07-29T07:35:24;98771.47;;;31.07;34.45
12799;BME280;19250;42.646;26.980;2023-07-29T07:37:53;98772.88;;;31.93;34.04
12799;BME280;19250;42.646;26.980;2023-07-29T07:40:20;98773.16;;;32.10;31.12
12799;BME280;19250;42.646;26.980;2023-07-29T07:42:47;98767.84;;;32.55;28.88
12799;BME280;19250;42.646;26.980;2023-07-29T07:45:15;98765.50;;;32.07;28.71
12799;BME280;19250;42.646;26.980;2023-07-29T07:47:43;98755.06;;;32.45;30.44
12799;BME280;19250;42.646;26.980;2023-07-29T07:50:10;98759.56;;;32.82;29.44
12799;BME280;19250;42.646;26.980;2023-07-29T07:52:39;98763.97;;;31.50;29.28
12799;BME280;19250;42.646;26.980;2023-07-29T07:55:09;98753.75;;;31.13;29.45
12799;BME280;19250;42.646;26.980;2023-07-29T07:57:36;98759.25;;;30.76;30.69
12799;BME280;19250;42.646;26.980;2023-07-29T08:00:04;98752.88;;;30.57;30.63
12799;BME280;19250;42.646;26.980;2023-07-29T08:02:32;98749.63;;;31.48;30.00
12799;BME280;19250;42.646;26.980;2023-07-29T08:04:59;98748.84;;;31.80;30.23
12799;BME280;19250;42.646;26.980;2023-07-29T08:07:26;98747.19;;;32.11;29.31
12799;BME280;19250;42.646;26.980;2023-07-29T08:09:53;98745.00;;;31.44;30.01
12799;BME280;19250;42.646;26.980;2023-07-29T08:12:22;98743.72;;;32.47;30.50
12799;BME280;19250;42.646;26.980;2023-07-29T08:14:49;98738.84;;;33.07;27.81
12799;BME280;19250;42.646;26.980;2023-07-29T08:17:17;98732.22;;;33.08;28.35
12799;BME280;19250;42.646;26.980;2023-07-29T08:19:44;98742.66;;;33.55;24.77
12799;BME280;19250;42.646;26.980;2023-07-29T08:22:11;98738.59;;;33.75;25.38
12799;BME280;19250;42.646;26.980;2023-07-29T08:24:38;98736.50;;;34.51;25.15
12799;BME280;19250;42.646;26.980;2023-07-29T08:27:06;98735.44;;;34.69;23.84
12799;BME280;19250;42.646;26.980;2023-07-29T08:29:34;98739.72;;;34.35;21.45
12799;BME280;19250;42.646;26.980;2023-07-29T08:32:01;98734.19;;;34.35;24.62
12799;BME280;19250;42.646;26.980;2023-07-29T08:34:28;98737.41;;;34.68;20.34
12799;BME280;19250;42.646;26.980;2023-07-29T08:36:55;98734.75;;;33.40;22.73
12799;BME280;19250;42.646;26.980;2023-07-29T08:39:22;98726.91;;;33.78;24.76
12799;BME280;19250;42.646;26.980;2023-07-29T08:41:50;98725.69;;;34.32;24.08
12799;BME280;19250;42.646;26.980;2023-07-29T08:44:20;98719.84;;;34.25;24.89
12799;BME280;19250;42.646;26.980;2023-07-29T08:46:50;98722.41;;;34.61;24.52
12799;BME280;19250;42.646;26.980;2023-07-29T08:49:19;98722.75;;;34.68;23.83
12799;BME280;19250;42.646;26.980;2023-07-29T08:51:48;98722.00;;;35.10;22.75
12799;BME280;19250;42.646;26.980;2023-07-29T08:54:15;98714.81;;;35.26;24.05
12799;BME280;19250;42.646;26.980;2023-07-29T08:56:42;98723.13;;;35.18;23.43
12799;BME280;19250;42.646;26.980;2023-07-29T08:59:10;98711.53;;;35.41;22.36
12799;BME280;19250;42.646;26.980;2023-07-29T09:01:37;98710.72;;;35.58;22.82
12799;BME280;19250;42.646;26.980;2023-07-29T09:04:06;98707.97;;;35.15;22.56
12799;BME280;19250;42.646;26.980;2023-07-29T09:06:32;98706.81;;;35.59;22.78
12799;BME280;19250;42.646;26.980;2023-07-29T09:09:00;98700.78;;;34.40;23.56
12799;BME280;19250;42.646;26.980;2023-07-29T09:11:27;98704.44;;;34.58;24.15
12799;BME280;19250;42.646;26.980;2023-07-29T09:13:54;98704.03;;;34.90;23.24
12799;BME280;19250;42.646;26.980;2023-07-29T09:16:22;98698.47;;;34.90;25.18
12799;BME280;19250;42.646;26.980;2023-07-29T09:18:49;98698.81;;;35.40;23.01
12799;BME280;19250;42.646;26.980;2023-07-29T09:21:23;98684.09;;;35.66;22.47
12799;BME280;19250;42.646;26.980;2023-07-29T09:23:50;98698.81;;;36.13;23.66
12799;BME280;19250;42.646;26.980;2023-07-29T09:26:21;98695.34;;;36.24;23.19
12799;BME280;19250;42.646;26.980;2023-07-29T09:28:51;98700.38;;;37.10;20.92
12799;BME280;19250;42.646;26.980;2023-07-29T09:31:19;98673.72;;;36.38;21.49
12799;BME280;19250;42.646;26.980;2023-07-29T09:33:47;98698.13;;;36.24;22.59
12799;BME280;19250;42.646;26.980;2023-07-29T09:36:14;98689.03;;;36.44;22.78
12799;BME280;19250;42.646;26.980;2023-07-29T09:38:44;98682.38;;;36.37;22.40
12799;BME280;19250;42.646;26.980;2023-07-29T09:41:12;98680.44;;;37.08;22.15
12799;BME280;19250;42.646;26.980;2023-07-29T09:43:41;98676.94;;;36.99;21.96
12799;BME280;19250;42.646;26.980;2023-07-29T09:46:08;98691.41;;;36.84;21.56
12799;BME280;19250;42.646;26.980;2023-07-29T09:48:36;98687.19;;;37.60;22.21
12799;BME280;19250;42.646;26.980;2023-07-29T09:51:10;98680.91;;;37.64;21.18
12799;BME280;19250;42.646;26.980;2023-07-29T09:53:40;98676.53;;;37.75;21.84
12799;BME280;19250;42.646;26.980;2023-07-29T09:56:09;98671.94;;;37.46;21.30
12799;BME280;19250;42.646;26.980;2023-07-29T09:58:37;98665.22;;;36.64;21.57
12799;BME280;19250;42.646;26.980;2023-07-29T10:01:05;98672.91;;;36.88;21.53
12799;BME280;19250;42.646;26.980;2023-07-29T10:03:33;98672.41;;;37.93;20.66
12799;BME280;19250;42.646;26.980;2023-07-29T10:06:02;98674.28;;;38.25;20.83
12799;BME280;19250;42.646;26.980;2023-07-29T10:08:29;98674.25;;;38.86;19.73
12799;BME280;19250;42.646;26.980;2023-07-29T10:10:59;98670.47;;;40.20;18.92
12799;BME280;19250;42.646;26.980;2023-07-29T10:13:28;98668.84;;;41.24;17.69
12799;BME280;19250;42.646;26.980;2023-07-29T10:15:55;98667.09;;;41.35;17.87
12799;BME280;19250;42.646;26.980;2023-07-29T10:18:23;98663.03;;;41.13;18.77
12799;BME280;19250;42.646;26.980;2023-07-29T10:20:51;98660.59;;;41.31;18.48
12799;BME280;19250;42.646;26.980;2023-07-29T10:23:21;98656.66;;;41.13;18.37
12799;BME280;19250;42.646;26.980;2023-07-29T10:25:57;98652.81;;;39.57;19.77
12799;BME280;19250;42.646;26.980;2023-07-29T10:28:31;98654.03;;;40.85;17.83
12799;BME280;19250;42.646;26.980;2023-07-29T10:31:00;98657.13;;;42.74;17.25
12799;BME280;19250;42.646;26.980;2023-07-29T10:33:27;98657.59;;;43.06;16.10
12799;BME280;19250;42.646;26.980;2023-07-29T10:35:55;98651.81;;;44.53;15.67
12799;BME280;19250;42.646;26.980;2023-07-29T10:38:23;98652.94;;;43.20;16.06
12799;BME280;19250;42.646;26.980;2023-07-29T10:40:52;98634.38;;;42.04;17.26
12799;BME280;19250;42.646;26.980;2023-07-29T10:43:25;98628.75;;;42.04;17.50
12799;BME280;19250;42.646;26.980;2023-07-29T10:45:55;98630.72;;;42.52;17.63
12799;BME280;19250;42.646;26.980;2023-07-29T10:48:42;98630.69;;;42.49;17.20
12799;BME280;19250;42.646;26.980;2023-07-29T10:51:25;98630.16;;;42.96;16.96
12799;BME280;19250;42.646;26.980;2023-07-29T10:53:56;98615.22;;;43.18;16.45
12799;BME280;19250;42.646;26.980;2023-07-29T10:56:27;98630.03;;;43.15;17.00
12799;BME280;19250;42.646;26.980;2023-07-29T10:58:56;98622.44;;;43.96;16.39
12799;BME280;19250;42.646;26.980;2023-07-29T11:01:29;98627.75;;;43.64;15.76
12799;BME280;19250;42.646;26.980;2023-07-29T11:04:25;98624.59;;;42.43;15.98
12799;BME280;19250;42.646;26.980;2023-07-29T11:07:24;98623.19;;;42.56;16.18
12799;BME280;19250;42.646;26.980;2023-07-29T11:09:57;98629.84;;;43.01;16.36
12799;BME280;19250;42.646;26.980;2023-07-29T11:12:48;98621.50;;;43.08;16.92
12799;BME280;19250;42.646;26.980;2023-07-29T11:15:24;98623.63;;;42.58;16.88
12799;BME280;19250;42.646;26.980;2023-07-29T11:17:54;98611.91;;;42.26;16.88
12799;BME280;19250;42.646;26.980;2023-07-29T11:20:23;98621.97;;;42.83;17.13
12799;BME280;19250;42.646;26.980;2023-07-29T11:22:52;98620.81;;;43.18;16.77
12799;BME280;19250;42.646;26.980;2023-07-29T11:25:21;98612.09;;;43.63;15.92
12799;BME280;19250;42.646;26.980;2023-07-29T11:27:51;98608.59;;;44.82;15.18
12799;BME280;19250;42.646;26.980;2023-07-29T11:30:18;98610.06;;;46.40;14.12
12799;BME280;19250;42.646;26.980;2023-07-29T11:32:46;98591.59;;;45.83;14.07
12799;BME280;19250;42.646;26.980;2023-07-29T11:35:16;98600.25;;;45.04;15.71
12799;BME280;19250;42.646;26.980;2023-07-29T11:37:45;98589.03;;;43.10;16.64
12799;BME280;19250;42.646;26.980;2023-07-29T11:40:14;98592.75;;;43.99;16.27
12799;BME280;19250;42.646;26.980;2023-07-29T11:42:42;98588.94;;;44.24;15.16
12799;BME280;19250;42.646;26.980;2023-07-29T11:45:10;98589.66;;;44.76;15.24
12799;BME280;19250;42.646;26.980;2023-07-29T11:47:37;98601.66;;;46.02;14.84
12799;BME280;19250;42.646;26.980;2023-07-29T11:50:06;98594.25;;;46.89;13.92
12799;BME280;19250;42.646;26.980;2023-07-29T11:52:37;98587.09;;;45.57;13.65
12799;BME280;19250;42.646;26.980;2023-07-29T11:55:05;98591.41;;;45.09;14.52
12799;BME280;19250;42.646;26.980;2023-07-29T11:57:35;98584.72;;;46.30;13.38
12799;BME280;19250;42.646;26.980;2023-07-29T12:00:03;98581.47;;;46.38;14.16
12799;BME280;19250;42.646;26.980;2023-07-29T12:02:32;98585.50;;;46.41;13.74
12799;BME280;19250;42.646;26.980;2023-07-29T12:05:01;98583.03;;;48.47;12.71
12799;BME280;19250;42.646;26.980;2023-07-29T12:07:28;98581.44;;;48.42;12.97
12799;BME280;19250;42.646;26.980;2023-07-29T12:09:57;98579.75;;;46.80;13.67
12799;BME280;19250;42.646;26.980;2023-07-29T12:12:24;98573.88;;;46.18;13.83
12799;BME280;19250;42.646;26.980;2023-07-29T12:14:51;98571.78;;;45.33;14.49
12799;BME280;19250;42.646;26.980;2023-07-29T12:17:17;98574.50;;;45.02;14.11
12799;BME280;19250;42.646;26.980;2023-07-29T12:19:44;98562.59;;;45.82;14.37
12799;BME280;19250;42.646;26.980;2023-07-29T12:22:11;98574.59;;;46.57;13.63
12799;BME280;19250;42.646;26.980;2023-07-29T12:24:38;98561.72;;;44.39;14.87
12799;BME280;19250;42.646;26.980;2023-07-29T12:27:09;98555.75;;;46.08;13.88
12799;BME280;19250;42.646;26.980;2023-07-29T12:29:39;98559.25;;;45.13;14.20
12799;BME280;19250;42.646;26.980;2023-07-29T12:32:06;98569.81;;;46.29;14.29
12799;BME280;19250;42.646;26.980;2023-07-29T12:34:34;98557.22;;;45.07;14.51
12799;BME280;19250;42.646;26.980;2023-07-29T12:37:02;98561.38;;;45.76;15.13
12799;BME280;19250;42.646;26.980;2023-07-29T12:39:30;98562.88;;;46.55;13.52
12799;BME280;19250;42.646;26.980;2023-07-29T12:41:59;98548.41;;;45.26;14.76
12799;BME280;19250;42.646;26.980;2023-07-29T12:44:29;98553.50;;;44.85;14.58
12799;BME280;19250;42.646;26.980;2023-07-29T12:46:56;98552.66;;;44.77;14.73
12799;BME280;19250;42.646;26.980;2023-07-29T12:49:23;98549.34;;;43.96;15.36
12799;BME280;19250;42.646;26.980;2023-07-29T12:51:50;98557.41;;;43.98;15.52
12799;BME280;19250;42.646;26.980;2023-07-29T12:54:17;98549.66;;;45.60;14.35